sensor_id;sensor_type;location;lat;lon;timestamp;pressure;altitude;pressure_sealevel;temperature;humidity
46534;BME280;32260;52.008;4.752;2023-08-07T00:00:50;101476.56;;;15.41;73.19
46534;BME280;32260;52.008;4.752;2023-08-07T00:03:16;101459.97;;;15.30;72.53
46534;BME280;32260;52.008;4.752;2023-08-07T00:05:46;101477.38;;;15.43;72.06
46534;BME280;32260;52.008;4.752;2023-08-07T00:08:12;101464.88;;;15.45;71.28
46534;BME280;32260;52.008;4.752;2023-08-07T00:10:39;101466.84;;;15.39;70.62
46534;BME280;32260;52.008;4.752;2023-08-07T00:13:05;101461.31;;;15.45;70.38
46534;BME280;32260;52.008;4.752;2023-08-07T00:15:32;101465.41;;;15.57;69.96
46534;BME280;32260;52.008;4.752;2023-08-07T00:17:59;101472.59;;;15.55;69.52
46534;BME280;32260;52.008;4.752;2023-08-07T00:20:25;101466.97;;;15.64;69.42
46534;BME280;32260;52.008;4.752;2023-08-07T00:22:52;101472.09;;;15.70;69.20
46534;BME280;32260;52.008;4.752;2023-08-07T00:25:18;101460.50;;;15.71;69.33
46534;BME280;32260;52.008;4.752;2023-08-07T00:27:44;101464.72;;;15.78;68.95
46534;BME280;32260;52.008;4.752;2023-08-07T00:30:11;101459.31;;;15.81;69.88
46534;BME280;32260;52.008;4.752;2023-08-07T00:32:37;101461.22;;;15.76;68.52
46534;BME280;32260;52.008;4.752;2023-08-07T00:35:04;101459.38;;;15.78;68.09
46534;BME280;32260;52.008;4.752;2023-08-07T00:37:30;101478.19;;;15.75;68.23
46534;BME280;32260;52.008;4.752;2023-08-07T00:39:56;101465.47;;;15.85;67.82
46534;BME280;32260;52.008;4.752;2023-08-07T00:42:22;101475.41;;;15.78;68.02
46534;BME280;32260;52.008;4.752;2023-08-07T00:44:49;101460.88;;;15.89;67.95
46534;BME280;32260;52.008;4.752;2023-08-07T00:47:15;101465.34;;;15.88;67.95
46534;BME280;32260;52.008;4.752;2023-08-07T00:49:41;101489.41;;;15.88;68.26
46534;BME280;32260;52.008;4.752;2023-08-07T00:52:08;101508.44;;;15.76;69.27
46534;BME280;32260;52.008;4.752;2023-08-07T00:54:34;101492.56;;;15.71;69.85
46534;BME280;32260;52.008;4.752;2023-08-07T00:57:11;101497.94;;;15.69;69.94
46534;BME280;32260;52.008;4.752;2023-08-07T00:59:39;101492.19;;;15.53;70.51
46534;BME280;32260;52.008;4.752;2023-08-07T01:02:06;101495.84;;;15.51;69.90
46534;BME280;32260;52.008;4.752;2023-08-07T01:04:33;101496.16;;;15.40;70.09
46534;BME280;32260;52.008;4.752;2023-08-07T01:06:59;101483.66;;;15.42;70.25
46534;BME280;32260;52.008;4.752;2023-08-07T01:09:25;101482.78;;;15.42;70.44
46534;BME280;32260;52.008;4.752;2023-08-07T01:12:04;101490.56;;;15.49;70.14
46534;BME280;32260;52.008;4.752;2023-08-07T01:14:55;101502.84;;;15.55;69.66
46534;BME280;32260;52.008;4.752;2023-08-07T01:17:25;101501.50;;;15.40;70.29
46534;BME280;32260;52.008;4.752;2023-08-07T01:19:52;101498.03;;;15.38;70.58
46534;BME280;32260;52.008;4.752;2023-08-07T01:22:19;101494.63;;;15.33;71.35
46534;BME280;32260;52.008;4.752;2023-08-07T01:24:47;101499.06;;;15.32;71.70
46534;BME280;32260;52.008;4.752;2023-08-07T01:30:26;101487.28;;;15.40;72.22
46534;BME280;32260;52.008;4.752;2023-08-07T01:33:04;101482.00;;;15.38;72.11
46534;BME280;32260;52.008;4.752;2023-08-07T01:35:37;101488.94;;;15.44;71.58
46534;BME280;32260;52.008;4.752;2023-08-07T01:38:07;101492.50;;;15.44;71.88
46534;BME280;32260;52.008;4.752;2023-08-07T01:40:34;101486.25;;;15.45;71.73
46534;BME280;32260;52.008;4.752;2023-08-07T01:43:03;101487.03;;;15.47;71.52
46534;BME280;32260;52.008;4.752;2023-08-07T01:45:29;101496.13;;;15.42;71.03
46534;BME280;32260;52.008;4.752;2023-08-07T01:47:56;101496.91;;;15.45;70.79
46534;BME280;32260;52.008;4.752;2023-08-07T01:50:23;101498.38;;;15.26;70.92
46534;BME280;32260;52.008;4.752;2023-08-07T01:52:50;101489.72;;;15.47;70.72
46534;BME280;32260;52.008;4.752;2023-08-07T01:55:17;101499.59;;;15.45;70.53
46534;BME280;32260;52.008;4.752;2023-08-07T01:57:44;101499.78;;;15.37;70.63
46534;BME280;32260;52.008;4.752;2023-08-07T02:00:10;101496.06;;;15.43;70.34
46534;BME280;32260;52.008;4.752;2023-08-07T02:02:37;101497.84;;;15.44;70.39
46534;BME280;32260;52.008;4.752;2023-08-07T02:05:04;101499.41;;;15.51;70.14
46534;BME280;32260;52.008;4.752;2023-08-07T02:07:31;101495.34;;;15.38;70.16
46534;BME280;32260;52.008;4.752;2023-08-07T02:09:57;101500.13;;;15.57;69.71
46534;BME280;32260;52.008;4.752;2023-08-07T02:12:24;101492.19;;;15.53;69.73
46534;BME280;32260;52.008;4.752;2023-08-07T02:14:52;101496.50;;;15.59;69.42
46534;BME280;32260;52.008;4.752;2023-08-07T02:17:20;101500.75;;;15.65;69.19
46534;BME280;32260;52.008;4.752;2023-08-07T02:19:46;101491.69;;;15.71;69.01
46534;BME280;32260;52.008;4.752;2023-08-07T02:22:12;101490.66;;;15.75;69.17
46534;BME280;32260;52.008;4.752;2023-08-07T02:24:38;101492.47;;;15.74;68.71
46534;BME280;32260;52.008;4.752;2023-08-07T02:27:05;101502.31;;;15.72;68.05
46534;BME280;32260;52.008;4.752;2023-08-07T02:29:31;101498.53;;;15.79;68.20
46534;BME280;32260;52.008;4.752;2023-08-07T02:32:01;101499.47;;;15.78;68.23
46534;BME280;32260;52.008;4.752;2023-08-07T02:34:29;101498.53;;;15.79;67.53
46534;BME280;32260;52.008;4.752;2023-08-07T02:36:55;101495.88;;;15.79;67.26
46534;BME280;32260;52.008;4.752;2023-08-07T02:39:22;101500.22;;;15.83;67.35
46534;BME280;32260;52.008;4.752;2023-08-07T02:41:48;101477.66;;;15.94;66.81
46534;BME280;32260;52.008;4.752;2023-08-07T02:44:15;101484.06;;;15.88;66.73
46534;BME280;32260;52.008;4.752;2023-08-07T02:46:43;101498.38;;;15.85;66.90
46534;BME280;32260;52.008;4.752;2023-08-07T02:49:09;101499.38;;;15.81;67.11
46534;BME280;32260;52.008;4.752;2023-08-07T02:51:35;101494.44;;;15.97;67.49
46534;BME280;32260;52.008;4.752;2023-08-07T02:54:01;101501.59;;;15.97;67.67
46534;BME280;32260;52.008;4.752;2023-08-07T02:56:27;101501.69;;;15.94;68.17
46534;BME280;32260;52.008;4.752;2023-08-07T02:58:54;101499.03;;;15.94;68.92
46534;BME280;32260;52.008;4.752;2023-08-07T03:01:20;101509.22;;;15.79;69.75
46534;BME280;32260;52.008;4.752;2023-08-07T03:03:47;101503.88;;;15.79;69.52
46534;BME280;32260;52.008;4.752;2023-08-07T03:06:13;101493.28;;;15.76;69.93
46534;BME280;32260;52.008;4.752;2023-08-07T03:08:39;101506.69;;;15.75;69.72
46534;BME280;32260;52.008;4.752;2023-08-07T03:11:05;101507.25;;;15.56;70.49
46534;BME280;32260;52.008;4.752;2023-08-07T03:13:31;101521.31;;;15.63;70.09
46534;BME280;32260;52.008;4.752;2023-08-07T03:16:01;101509.44;;;15.73;69.75
46534;BME280;32260;52.008;4.752;2023-08-07T03:18:28;101503.94;;;15.78;69.84
46534;BME280;32260;52.008;4.752;2023-08-07T03:20:55;101507.53;;;15.77;69.92
46534;BME280;32260;52.008;4.752;2023-08-07T03:23:23;101505.00;;;15.72;70.02
46534;BME280;32260;52.008;4.752;2023-08-07T03:25:49;101501.13;;;15.84;70.42
46534;BME280;32260;52.008;4.752;2023-08-07T03:28:16;101494.03;;;15.81;70.44
46534;BME280;32260;52.008;4.752;2023-08-07T03:30:43;101497.56;;;15.83;70.53
46534;BME280;32260;52.008;4.752;2023-08-07T03:33:10;101501.91;;;15.88;70.10
46534;BME280;32260;52.008;4.752;2023-08-07T03:35:36;101500.22;;;15.83;70.88
46534;BME280;32260;52.008;4.752;2023-08-07T03:38:02;101492.06;;;15.88;70.66
46534;BME280;32260;52.008;4.752;2023-08-07T03:40:28;101503.69;;;15.87;70.70
46534;BME280;32260;52.008;4.752;2023-08-07T03:42:54;101500.16;;;15.87;70.89
46534;BME280;32260;52.008;4.752;2023-08-07T03:45:20;101499.16;;;15.89;71.12
46534;BME280;32260;52.008;4.752;2023-08-07T03:47:46;101497.09;;;15.97;70.49
46534;BME280;32260;52.008;4.752;2023-08-07T03:50:12;101500.75;;;15.95;70.78
46534;BME280;32260;52.008;4.752;2023-08-07T03:52:38;101487.25;;;15.99;70.75
46534;BME280;32260;52.008;4.752;2023-08-07T03:55:05;101495.28;;;15.99;71.13
46534;BME280;32260;52.008;4.752;2023-08-07T03:57:31;101499.56;;;16.05;70.83
46534;BME280;32260;52.008;4.752;2023-08-07T03:59:57;101504.69;;;16.11;71.16
46534;BME280;32260;52.008;4.752;2023-08-07T04:02:23;101503.81;;;16.11;71.45
46534;BME280;32260;52.008;4.752;2023-08-07T04:04:51;101495.72;;;16.12;71.26
46534;BME280;32260;52.008;4.752;2023-08-07T04:07:17;101498.59;;;16.06;71.97
46534;BME280;32260;52.008;4.752;2023-08-07T04:09:43;101500.47;;;16.04;72.42
46534;BME280;32260;52.008;4.752;2023-08-07T04:12:09;101502.38;;;16.00;72.72
46534;BME280;32260;52.008;4.752;2023-08-07T04:14:35;101498.06;;;15.95;73.43
46534;BME280;32260;52.008;4.752;2023-08-07T04:17:01;101494.44;;;15.97;73.33
46534;BME280;32260;52.008;4.752;2023-08-07T04:19:27;101497.22;;;15.94;73.54
46534;BME280;32260;52.008;4.752;2023-08-07T04:21:54;101512.59;;;15.88;73.92
46534;BME280;32260;52.008;4.752;2023-08-07T04:24:20;101500.03;;;15.90;73.29
46534;BME280;32260;52.008;4.752;2023-08-07T04:26:46;101501.91;;;15.88;73.69
46534;BME280;32260;52.008;4.752;2023-08-07T04:29:12;101504.50;;;15.89;73.78
46534;BME280;32260;52.008;4.752;2023-08-07T04:31:38;101508.09;;;15.88;74.10
46534;BME280;32260;52.008;4.752;2023-08-07T04:34:04;101520.44;;;15.92;73.89
46534;BME280;32260;52.008;4.752;2023-08-07T04:36:30;101526.66;;;15.93;73.95
46534;BME280;32260;52.008;4.752;2023-08-07T04:38:56;101525.00;;;15.89;73.63
46534;BME280;32260;52.008;4.752;2023-08-07T04:41:23;101518.84;;;15.87;73.37
46534;BME280;32260;52.008;4.752;2023-08-07T04:43:50;101528.13;;;15.73;73.27
46534;BME280;32260;52.008;4.752;2023-08-07T04:46:16;101532.44;;;15.77;72.67
46534;BME280;32260;52.008;4.752;2023-08-07T04:48:42;101534.69;;;15.63;72.59
46534;BME280;32260;52.008;4.752;2023-08-07T04:51:08;101530.78;;;15.73;72.30
46534;BME280;32260;52.008;4.752;2023-08-07T04:53:34;101539.00;;;15.67;71.85
46534;BME280;32260;52.008;4.752;2023-08-07T04:56:00;101530.13;;;15.66;71.67
46534;BME280;32260;52.008;4.752;2023-08-07T04:58:26;101555.75;;;15.72;71.74
46534;BME280;32260;52.008;4.752;2023-08-07T05:00:56;101545.84;;;15.76;71.47
46534;BME280;32260;52.008;4.752;2023-08-07T05:03:23;101548.47;;;15.77;70.90
46534;BME280;32260;52.008;4.752;2023-08-07T05:05:49;101538.63;;;15.79;70.74
46534;BME280;32260;52.008;4.752;2023-08-07T05:08:15;101553.66;;;15.83;70.70
46534;BME280;32260;52.008;4.752;2023-08-07T05:10:42;101550.16;;;15.81;70.27
46534;BME280;32260;52.008;4.752;2023-08-07T05:13:08;101546.34;;;15.90;70.15
46534;BME280;32260;52.008;4.752;2023-08-07T05:15:34;101556.19;;;15.88;70.08
46534;BME280;32260;52.008;4.752;2023-08-07T05:18:00;101568.69;;;15.88;70.30
46534;BME280;32260;52.008;4.752;2023-08-07T05:20:26;101574.84;;;15.90;70.64
46534;BME280;32260;52.008;4.752;2023-08-07T05:22:52;101569.81;;;15.79;71.40
46534;BME280;32260;52.008;4.752;2023-08-07T05:25:18;101572.88;;;15.66;71.49
46534;BME280;32260;52.008;4.752;2023-08-07T05:27:45;101569.47;;;15.60;71.69
46534;BME280;32260;52.008;4.752;2023-08-07T05:30:12;101561.56;;;15.57;71.94
46534;BME280;32260;52.008;4.752;2023-08-07T05:32:38;101569.19;;;15.39;72.73
46534;BME280;32260;52.008;4.752;2023-08-07T05:35:05;101572.56;;;15.46;72.74
46534;BME280;32260;52.008;4.752;2023-08-07T05:37:33;101579.53;;;15.50;73.33
46534;BME280;32260;52.008;4.752;2023-08-07T05:39:59;101582.22;;;15.50;73.23
46534;BME280;32260;52.008;4.752;2023-08-07T05:42:25;101575.88;;;15.54;73.26
46534;BME280;32260;52.008;4.752;2023-08-07T05:44:51;101583.94;;;15.52;73.36
46534;BME280;32260;52.008;4.752;2023-08-07T05:47:17;101584.09;;;15.48;73.88
46534;BME280;32260;52.008;4.752;2023-08-07T05:49:43;101584.88;;;15.51;73.97
46534;BME280;32260;52.008;4.752;2023-08-07T05:52:09;101592.72;;;15.58;73.56
46534;BME280;32260;52.008;4.752;2023-08-07T05:54:35;101593.28;;;15.67;73.16
46534;BME280;32260;52.008;4.752;2023-08-07T05:57:02;101585.94;;;15.76;73.23
46534;BME280;32260;52.008;4.752;2023-08-07T05:59:28;101583.91;;;15.85;72.64
46534;BME280;32260;52.008;4.752;2023-08-07T06:01:54;101599.22;;;15.79;73.27
46534;BME280;32260;52.008;4.752;2023-08-07T06:04:21;101608.94;;;15.81;73.20
46534;BME280;32260;52.008;4.752;2023-08-07T06:06:47;101617.84;;;15.82;73.33
46534;BME280;32260;52.008;4.752;2023-08-07T06:09:14;101624.06;;;15.82;73.26
46534;BME280;32260;52.008;4.752;2023-08-07T06:11:41;101622.31;;;15.80;73.85
46534;BME280;32260;52.008;4.752;2023-08-07T06:14:07;101611.81;;;15.74;74.08
46534;BME280;32260;52.008;4.752;2023-08-07T06:16:33;101622.59;;;15.71;74.14
46534;BME280;32260;52.008;4.752;2023-08-07T06:18:59;101627.94;;;15.71;73.87
46534;BME280;32260;52.008;4.752;2023-08-07T06:21:25;101627.44;;;15.58;74.31
46534;BME280;32260;52.008;4.752;2023-08-07T06:23:54;101626.66;;;15.52;74.38
46534;BME280;32260;52.008;4.752;2023-08-07T06:26:20;101631.13;;;15.52;74.37
46534;BME280;32260;52.008;4.752;2023-08-07T06:28:46;101627.59;;;15.51;74.61
46534;BME280;32260;52.008;4.752;2023-08-07T06:31:13;101625.84;;;15.50;74.87
46534;BME280;32260;52.008;4.752;2023-08-07T06:33:39;101632.06;;;15.51;75.03
46534;BME280;32260;52.008;4.752;2023-08-07T06:36:06;101629.31;;;15.52;75.16
46534;BME280;32260;52.008;4.752;2023-08-07T06:38:32;101637.28;;;15.56;75.69
46534;BME280;32260;52.008;4.752;2023-08-07T06:40:58;101637.16;;;15.60;75.92
46534;BME280;32260;52.008;4.752;2023-08-07T06:43:24;101640.63;;;15.64;75.85
46534;BME280;32260;52.008;4.752;2023-08-07T06:45:50;101636.81;;;15.71;75.91
46534;BME280;32260;52.008;4.752;2023-08-07T06:48:17;101629.66;;;15.73;75.81
46534;BME280;32260;52.008;4.752;2023-08-07T06:50:43;101629.66;;;15.73;75.93
46534;BME280;32260;52.008;4.752;2023-08-07T06:53:10;101632.41;;;15.70;76.09
46534;BME280;32260;52.008;4.752;2023-08-07T06:55:36;101637.78;;;15.68;76.21
46534;BME280;32260;52.008;4.752;2023-08-07T06:58:02;101630.66;;;15.69;75.78
46534;BME280;32260;52.008;4.752;2023-08-07T07:00:28;101634.31;;;15.65;75.87
46534;BME280;32260;52.008;4.752;2023-08-07T07:02:54;101641.06;;;15.78;75.41
46534;BME280;32260;52.008;4.752;2023-08-07T07:05:20;101649.09;;;15.78;75.72
46534;BME280;32260;52.008;4.752;2023-08-07T07:07:46;101645.34;;;15.85;75.64
46534;BME280;32260;52.008;4.752;2023-08-07T07:10:12;101648.81;;;15.89;75.09
46534;BME280;32260;52.008;4.752;2023-08-07T07:12:38;101642.38;;;15.96;74.61
46534;BME280;32260;52.008;4.752;2023-08-07T07:15:05;101649.25;;;16.05;73.80
46534;BME280;32260;52.008;4.752;2023-08-07T07:17:31;101645.63;;;16.06;72.43
46534;BME280;32260;52.008;4.752;2023-08-07T07:19:57;101652.47;;;16.16;72.20
46534;BME280;32260;52.008;4.752;2023-08-07T07:22:23;101659.28;;;16.27;72.07
46534;BME280;32260;52.008;4.752;2023-08-07T07:24:49;101659.69;;;16.13;69.56
46534;BME280;32260;52.008;4.752;2023-08-07T07:27:16;101650.28;;;16.29;69.23
46534;BME280;32260;52.008;4.752;2023-08-07T07:29:42;101661.63;;;16.38;68.74
46534;BME280;32260;52.008;4.752;2023-08-07T07:32:08;101664.13;;;16.42;68.00
46534;BME280;32260;52.008;4.752;2023-08-07T07:34:34;101654.22;;;16.46;67.22
46534;BME280;32260;52.008;4.752;2023-08-07T07:37:00;101663.66;;;16.58;67.33
46534;BME280;32260;52.008;4.752;2023-08-07T07:39:26;101670.00;;;16.55;66.40
46534;BME280;32260;52.008;4.752;2023-08-07T07:41:52;101671.53;;;16.62;65.64
46534;BME280;32260;52.008;4.752;2023-08-07T07:44:18;101674.88;;;16.69;65.27
46534;BME280;32260;52.008;4.752;2023-08-07T07:46:44;101677.25;;;16.78;64.41
46534;BME280;32260;52.008;4.752;2023-08-07T07:49:10;101679.97;;;16.77;63.46
46534;BME280;32260;52.008;4.752;2023-08-07T07:51:36;101677.94;;;16.85;64.47
46534;BME280;32260;52.008;4.752;2023-08-07T07:54:03;101682.53;;;16.81;62.35
46534;BME280;32260;52.008;4.752;2023-08-07T07:56:29;101685.25;;;16.80;61.33
46534;BME280;32260;52.008;4.752;2023-08-07T07:58:55;101700.22;;;16.86;60.97
46534;BME280;32260;52.008;4.752;2023-08-07T08:01:21;101674.72;;;17.02;61.34
46534;BME280;32260;52.008;4.752;2023-08-07T08:03:49;101677.72;;;17.20;62.08
46534;BME280;32260;52.008;4.752;2023-08-07T08:06:15;101691.13;;;17.18;61.93
46534;BME280;32260;52.008;4.752;2023-08-07T08:08:41;101689.84;;;17.30;60.86
46534;BME280;32260;52.008;4.752;2023-08-07T08:11:08;101686.69;;;17.19;59.55
46534;BME280;32260;52.008;4.752;2023-08-07T08:13:34;101689.53;;;17.39;61.31
46534;BME280;32260;52.008;4.752;2023-08-07T08:16:04;101698.19;;;17.48;59.85
46534;BME280;32260;52.008;4.752;2023-08-07T08:18:31;101701.50;;;17.54;59.75
46534;BME280;32260;52.008;4.752;2023-08-07T08:20:57;101717.97;;;17.43;57.36
46534;BME280;32260;52.008;4.752;2023-08-07T08:23:23;101707.09;;;17.73;59.36
46534;BME280;32260;52.008;4.752;2023-08-07T08:25:49;101716.00;;;17.74;58.04
46534;BME280;32260;52.008;4.752;2023-08-07T08:28:16;101706.75;;;17.83;58.50
46534;BME280;32260;52.008;4.752;2023-08-07T08:30:42;101723.34;;;17.94;57.14
46534;BME280;32260;52.008;4.752;2023-08-07T08:33:08;101710.31;;;18.08;58.49
46534;BME280;32260;52.008;4.752;2023-08-07T08:35:38;101722.56;;;18.16;58.11
46534;BME280;32260;52.008;4.752;2023-08-07T08:38:04;101725.34;;;18.13;55.21
46534;BME280;32260;52.008;4.752;2023-08-07T08:40:31;101724.94;;;18.23;55.86
46534;BME280;32260;52.008;4.752;2023-08-07T08:43:00;101729.88;;;18.10;54.70
46534;BME280;32260;52.008;4.752;2023-08-07T08:45:27;101731.69;;;18.10;54.67
46534;BME280;32260;52.008;4.752;2023-08-07T08:47:58;101731.28;;;18.21;55.42
46534;BME280;32260;52.008;4.752;2023-08-07T08:50:26;101728.84;;;18.15;54.64
46534;BME280;32260;52.008;4.752;2023-08-07T08:52:54;101721.81;;;18.34;55.83
46534;BME280;32260;52.008;4.752;2023-08-07T08:55:21;101734.03;;;18.43;55.32
46534;BME280;32260;52.008;4.752;2023-08-07T08:57:48;101722.53;;;18.39;53.12
46534;BME280;32260;52.008;4.752;2023-08-07T09:00:16;101729.47;;;18.45;53.33
46534;BME280;32260;52.008;4.752;2023-08-07T09:02:46;101727.13;;;18.59;54.27
46534;BME280;32260;52.008;4.752;2023-08-07T09:05:15;101745.47;;;18.70;52.96
46534;BME280;32260;52.008;4.752;2023-08-07T09:07:42;101754.09;;;18.79;54.34
46534;BME280;32260;52.008;4.752;2023-08-07T09:10:10;101727.94;;;18.84;53.70
46534;BME280;32260;52.008;4.752;2023-08-07T09:12:40;101722.56;;;18.84;52.57
46534;BME280;32260;52.008;4.752;2023-08-07T09:15:09;101726.91;;;18.88;51.65
46534;BME280;32260;52.008;4.752;2023-08-07T09:17:40;101739.09;;;18.97;51.49
46534;BME280;32260;52.008;4.752;2023-08-07T09:20:08;101738.53;;;19.11;52.16
46534;BME280;32260;52.008;4.752;2023-08-07T09:22:38;101741.81;;;19.17;52.12
46534;BME280;32260;52.008;4.752;2023-08-07T09:25:05;101747.38;;;19.13;52.12
46534;BME280;32260;52.008;4.752;2023-08-07T09:27:31;101748.88;;;18.98;51.49
46534;BME280;32260;52.008;4.752;2023-08-07T09:29:59;101743.63;;;19.17;52.85
46534;BME280;32260;52.008;4.752;2023-08-07T09:32:25;101750.09;;;19.33;52.67
46534;BME280;32260;52.008;4.752;2023-08-07T09:34:51;101747.56;;;19.30;51.77
46534;BME280;32260;52.008;4.752;2023-08-07T09:37:18;101757.47;;;19.50;52.57
46534;BME280;32260;52.008;4.752;2023-08-07T09:39:44;101749.16;;;19.55;49.77
46534;BME280;32260;52.008;4.752;2023-08-07T09:42:14;101755.38;;;19.57;49.85
46534;BME280;32260;52.008;4.752;2023-08-07T09:44:42;101755.56;;;19.52;49.64
46534;BME280;32260;52.008;4.752;2023-08-07T09:47:13;101766.06;;;19.16;49.26
46534;BME280;32260;52.008;4.752;2023-08-07T09:49:40;101763.53;;;19.33;50.25
46534;BME280;32260;52.008;4.752;2023-08-07T09:52:08;101751.34;;;19.47;50.88
46534;BME280;32260;52.008;4.752;2023-08-07T09:54:36;101755.91;;;19.65;50.74
46534;BME280;32260;52.008;4.752;2023-08-07T09:57:03;101762.09;;;19.67;50.80
46534;BME280;32260;52.008;4.752;2023-08-07T09:59:29;101757.78;;;19.63;49.80
46534;BME280;32260;52.008;4.752;2023-08-07T10:01:56;101761.50;;;19.81;50.40
46534;BME280;32260;52.008;4.752;2023-08-07T10:04:22;101763.44;;;19.98;50.37
46534;BME280;32260;52.008;4.752;2023-08-07T10:06:48;101758.59;;;20.07;49.84
46534;BME280;32260;52.008;4.752;2023-08-07T10:09:15;101759.53;;;20.06;47.20
46534;BME280;32260;52.008;4.752;2023-08-07T10:11:42;101766.59;;;20.08;48.74
46534;BME280;32260;52.008;4.752;2023-08-07T10:14:09;101785.25;;;19.92;48.56
46534;BME280;32260;52.008;4.752;2023-08-07T10:16:36;101774.88;;;20.03;48.36
46534;BME280;32260;52.008;4.752;2023-08-07T10:19:05;101784.00;;;19.79;47.01
46534;BME280;32260;52.008;4.752;2023-08-07T10:21:37;101766.50;;;19.91;47.26
46534;BME280;32260;52.008;4.752;2023-08-07T10:24:04;101768.44;;;20.08;46.75
46534;BME280;32260;52.008;4.752;2023-08-07T10:26:44;101773.94;;;20.04;46.66
46534;BME280;32260;52.008;4.752;2023-08-07T10:29:14;101779.03;;;20.11;47.11
46534;BME280;32260;52.008;4.752;2023-08-07T10:31:45;101780.63;;;20.15;47.54
46534;BME280;32260;52.008;4.752;2023-08-07T10:34:11;101780.34;;;20.21;47.06
46534;BME280;32260;52.008;4.752;2023-08-07T10:36:40;101780.16;;;20.26;47.23
46534;BME280;32260;52.008;4.752;2023-08-07T10:39:11;101778.03;;;20.32;47.10
46534;BME280;32260;52.008;4.752;2023-08-07T10:41:42;101801.59;;;20.27;45.54
46534;BME280;32260;52.008;4.752;2023-08-07T10:44:21;101787.75;;;20.36;44.10
46534;BME280;32260;52.008;4.752;2023-08-07T10:49:49;101785.66;;;20.62;44.87
46534;BME280;32260;52.008;4.752;2023-08-07T10:52:42;101784.47;;;20.49;44.90
46534;BME280;32260;52.008;4.752;2023-08-07T10:55:14;101791.34;;;20.56;44.81
46534;BME280;32260;52.008;4.752;2023-08-07T10:58:06;101811.53;;;20.46;44.99
46534;BME280;32260;52.008;4.752;2023-08-07T11:04:22;101797.56;;;20.38;44.86
46534;BME280;32260;52.008;4.752;2023-08-07T11:07:03;101805.84;;;20.52;45.52
46534;BME280;32260;52.008;4.752;2023-08-07T11:09:33;101805.41;;;20.42;44.51
46534;BME280;32260;52.008;4.752;2023-08-07T11:12:10;101790.31;;;20.59;44.79
46534;BME280;32260;52.008;4.752;2023-08-07T11:15:11;101798.75;;;20.70;44.35
46534;BME280;32260;52.008;4.752;2023-08-07T11:17:49;101794.81;;;20.96;45.39
46534;BME280;32260;52.008;4.752;2023-08-07T11:20:28;101808.19;;;21.17;44.58
46534;BME280;32260;52.008;4.752;2023-08-07T11:22:55;101796.53;;;21.16;43.30
46534;BME280;32260;52.008;4.752;2023-08-07T11:25:21;101792.44;;;21.27;43.34
46534;BME280;32260;52.008;4.752;2023-08-07T11:27:54;101797.38;;;21.36;43.74
46534;BME280;32260;52.008;4.752;2023-08-07T11:30:23;101800.47;;;21.28;43.31
46534;BME280;32260;52.008;4.752;2023-08-07T11:32:52;101785.38;;;21.42;43.71
46534;BME280;32260;52.008;4.752;2023-08-07T11:35:22;101786.31;;;21.77;43.45
46534;BME280;32260;52.008;4.752;2023-08-07T11:37:51;101785.75;;;21.71;40.04
46534;BME280;32260;52.008;4.752;2023-08-07T11:40:20;101781.63;;;21.81;41.17
46534;BME280;32260;52.008;4.752;2023-08-07T11:42:46;101790.31;;;21.51;40.19
46534;BME280;32260;52.008;4.752;2023-08-07T11:45:20;101802.50;;;21.41;42.15
46534;BME280;32260;52.008;4.752;2023-08-07T11:47:46;101797.69;;;21.47;41.69
46534;BME280;32260;52.008;4.752;2023-08-07T11:50:14;101806.41;;;21.35;40.05
46534;BME280;32260;52.008;4.752;2023-08-07T11:53:01;101813.03;;;21.64;40.71
46534;BME280;32260;52.008;4.752;2023-08-07T11:55:28;101811.72;;;21.73;41.30
46534;BME280;32260;52.008;4.752;2023-08-07T11:57:57;101799.19;;;21.53;39.65
46534;BME280;32260;52.008;4.752;2023-08-07T12:00:25;101802.59;;;21.58;39.40
46534;BME280;32260;52.008;4.752;2023-08-07T12:02:56;101805.88;;;21.46;39.01
46534;BME280;32260;52.008;4.752;2023-08-07T12:05:27;101808.31;;;21.50;39.18
46534;BME280;32260;52.008;4.752;2023-08-07T12:07:57;101801.50;;;21.43;39.33
46534;BME280;32260;52.008;4.752;2023-08-07T12:10:23;101800.16;;;21.52;38.64
46534;BME280;32260;52.008;4.752;2023-08-07T12:12:49;101800.94;;;21.54;40.36
46534;BME280;32260;52.008;4.752;2023-08-07T12:15:22;101800.84;;;21.57;40.41
46534;BME280;32260;52.008;4.752;2023-08-07T12:21:08;101804.75;;;21.50;39.35
46534;BME280;32260;52.008;4.752;2023-08-07T12:23:55;101802.59;;;21.58;40.64
46534;BME280;32260;52.008;4.752;2023-08-07T12:29:39;101791.63;;;21.79;41.72
46534;BME280;32260;52.008;4.752;2023-08-07T12:32:12;101798.84;;;21.96;41.61
46534;BME280;32260;52.008;4.752;2023-08-07T12:35:14;101786.59;;;22.06;42.96
46534;BME280;32260;52.008;4.752;2023-08-07T12:38:01;101783.09;;;22.04;42.10
46534;BME280;32260;52.008;4.752;2023-08-07T12:41:01;101792.03;;;22.22;41.37
46534;BME280;32260;52.008;4.752;2023-08-07T12:43:29;101787.16;;;22.29;40.72
46534;BME280;32260;52.008;4.752;2023-08-07T12:45:55;101799.94;;;22.25;38.20
46534;BME280;32260;52.008;4.752;2023-08-07T12:48:21;101793.63;;;22.09;37.72
46534;BME280;32260;52.008;4.752;2023-08-07T12:50:50;101789.75;;;22.14;37.91
46534;BME280;32260;52.008;4.752;2023-08-07T12:53:25;101789.44;;;22.37;39.38
46534;BME280;32260;52.008;4.752;2023-08-07T12:55:51;101791.84;;;22.25;38.38
46534;BME280;32260;52.008;4.752;2023-08-07T12:58:28;101791.38;;;22.35;38.29
46534;BME280;32260;52.008;4.752;2023-08-07T13:00:58;101784.38;;;22.30;39.59
46534;BME280;32260;52.008;4.752;2023-08-07T13:03:24;101794.16;;;22.33;37.73
46534;BME280;32260;52.008;4.752;2023-08-07T13:05:51;101794.03;;;22.52;38.62
46534;BME280;32260;52.008;4.752;2023-08-07T13:08:17;101788.56;;;22.36;39.45
46534;BME280;32260;52.008;4.752;2023-08-07T13:10:45;101796.91;;;22.32;39.86